createdAt,value
2019-05-21T00:01:35.898Z,182.93
2019-05-21T00:04:02.438Z,232.47
2019-05-21T00:06:29.065Z,267.50
2019-05-21T00:08:55.592Z,314.32
2019-05-21T00:11:22.108Z,306.25
2019-05-21T00:13:48.640Z,253.00
2019-05-21T00:16:15.158Z,263.25
2019-05-21T00:18:41.708Z,269.55
2019-05-21T00:21:08.325Z,269.35
2019-05-21T00:23:34.850Z,253.37
2019-05-21T00:26:01.368Z,272.52
2019-05-21T00:28:37.186Z,339.63
2019-05-21T00:32:00.093Z,364.20
2019-05-21T00:35:24.898Z,298.80
2019-05-21T00:38:47.839Z,310.00
2019-05-21T00:42:04.779Z,378.62
2019-05-21T00:44:41.169Z,357.57
2019-05-21T00:47:10.453Z,333.52
2019-05-21T00:49:36.985Z,321.50
2019-05-21T00:52:08.584Z,311.32
2019-05-21T00:54:33.142Z,306.45
2019-05-21T00:56:59.892Z,335.95
2019-05-21T00:59:26.431Z,313.18
2019-05-21T01:01:52.964Z,353.98
2019-05-21T01:04:19.580Z,294.80
2019-05-21T01:06:46.121Z,283.17
2019-05-21T01:09:12.686Z,262.52
2019-05-21T01:11:39.247Z,269.27
2019-05-21T01:14:06.792Z,267.87
2019-05-21T01:16:33.331Z,215.75
2019-05-21T01:19:00.056Z,207.32
2019-05-21T01:21:26.696Z,178.07
2019-05-21T01:23:53.226Z,153.47
2019-05-21T01:26:19.768Z,192.90
2019-05-21T01:28:46.396Z,158.63
2019-05-21T01:31:12.941Z,170.25
2019-05-21T01:33:39.473Z,178.10
2019-05-21T01:36:06.034Z,159.05
2019-05-21T01:38:32.567Z,161.77
2019-05-21T01:40:59.212Z,193.97
2019-05-21T01:43:25.764Z,185.10
2019-05-21T01:45:52.312Z,162.92
2019-05-21T01:48:18.916Z,158.47
2019-05-21T01:50:45.477Z,163.32
2019-05-21T01:53:12.075Z,145.32
2019-05-21T01:55:38.714Z,137.75
2019-05-21T01:58:05.347Z,136.37
2019-05-21T02:00:32.001Z,113.42
2019-05-21T02:02:58.536Z,103.53
2019-05-21T02:05:32.909Z,109.40
2019-05-21T02:07:53.527Z,100.12
2019-05-21T02:10:20.082Z,118.13
2019-05-21T02:12:46.617Z,110.30
2019-05-21T02:15:13.251Z,106.20
2019-05-21T02:17:39.806Z,106.50
2019-05-21T02:20:06.770Z,110.22
2019-05-21T02:22:33.343Z,115.95
2019-05-21T02:24:59.886Z,117.22
2019-05-21T02:27:26.431Z,116.88
2019-05-21T02:29:53.062Z,136.07
2019-05-21T02:32:19.614Z,138.97
2019-05-21T02:34:46.146Z,138.68
2019-05-21T02:37:12.690Z,119.87
2019-05-21T02:39:39.229Z,146.40
2019-05-21T02:42:05.888Z,132.60
2019-05-21T02:44:32.436Z,172.10
2019-05-21T02:46:58.984Z,166.75
2019-05-21T02:49:25.523Z,212.85
2019-05-21T02:51:52.077Z,216.57
2019-05-21T02:54:18.610Z,217.95
2019-05-21T02:56:45.166Z,283.02
2019-05-21T02:59:11.777Z,249.58
2019-05-21T03:01:46.323Z,266.55
2019-05-21T03:04:12.850Z,251.88
2019-05-21T03:06:39.480Z,260.68
2019-05-21T03:09:06.113Z,260.70
2019-05-21T03:11:32.765Z,250.15
2019-05-21T03:13:59.308Z,292.18
2019-05-21T03:16:25.841Z,253.25
2019-05-21T03:18:52.397Z,301.80
2019-05-21T03:21:18.938Z,274.48
2019-05-21T03:23:45.473Z,333.17
2019-05-21T03:26:12.011Z,294.00
2019-05-21T03:28:38.589Z,295.37
2019-05-21T03:31:05.140Z,248.72
2019-05-21T03:33:31.677Z,254.03
2019-05-21T03:35:58.329Z,345.73
2019-05-21T03:38:25.034Z,290.77
2019-05-21T03:40:51.574Z,272.67
2019-05-21T03:43:18.123Z,215.72
2019-05-21T03:45:44.643Z,204.15
2019-05-21T03:48:11.182Z,222.37
2019-05-21T03:50:37.713Z,216.45
2019-05-21T03:53:04.364Z,203.70
2019-05-21T03:55:30.872Z,182.37
2019-05-21T03:57:57.423Z,190.15
2019-05-21T04:00:24.079Z,212.80
2019-05-21T04:02:50.592Z,173.85
2019-05-21T04:05:23.384Z,163.50
2019-05-21T04:07:50.213Z,178.10
2019-05-21T04:10:16.946Z,172.22
2019-05-21T04:12:45.396Z,159.22
2019-05-21T04:15:20.052Z,162.30
2019-05-21T04:18:00.568Z,181.02
2019-05-21T04:20:27.099Z,119.95
2019-05-21T04:22:53.639Z,120.33
2019-05-21T04:25:21.475Z,128.87
2019-05-21T04:27:48.084Z,121.85
2019-05-21T04:30:14.740Z,95.87
2019-05-21T04:32:41.336Z,77.87
2019-05-21T04:35:08.089Z,104.27
2019-05-21T04:37:34.621Z,85.67
2019-05-21T04:40:01.188Z,103.50
2019-05-21T04:42:27.714Z,82.45
2019-05-21T04:44:54.392Z,83.05
2019-05-21T04:47:20.972Z,80.10
2019-05-21T04:49:47.499Z,77.12
2019-05-21T04:52:14.045Z,80.32
2019-05-21T04:54:40.586Z,76.45
2019-05-21T04:57:07.228Z,75.00
2019-05-21T04:59:33.823Z,71.67
2019-05-21T05:02:00.350Z,78.25
2019-05-21T05:04:26.916Z,71.17
2019-05-21T05:06:53.465Z,71.67
2019-05-21T05:09:19.990Z,77.25
2019-05-21T05:11:46.615Z,73.20
2019-05-21T05:14:13.349Z,55.58
2019-05-21T05:16:39.873Z,62.25
2019-05-21T05:19:06.453Z,74.87
2019-05-21T05:21:32.976Z,62.55
2019-05-21T05:23:59.513Z,63.75
2019-05-21T05:26:26.053Z,65.08
2019-05-21T05:28:52.800Z,53.92
2019-05-21T05:31:19.339Z,46.05
2019-05-21T05:33:45.879Z,53.70
2019-05-21T05:36:12.401Z,61.30
2019-05-21T05:38:39.646Z,41.60
2019-05-21T05:41:06.187Z,44.33
2019-05-21T05:43:32.848Z,37.35
2019-05-21T05:45:59.375Z,33.40
2019-05-21T05:48:27.175Z,27.58
2019-05-21T05:50:58.269Z,22.37
2019-05-21T05:53:24.793Z,28.15
2019-05-21T05:55:51.444Z,28.05
2019-05-21T05:58:18.128Z,23.02
2019-05-21T06:00:44.927Z,24.23
2019-05-21T06:03:11.669Z,21.77
2019-05-21T06:05:38.558Z,25.88
2019-05-21T06:08:05.305Z,30.85
2019-05-21T06:10:31.987Z,26.77
2019-05-21T06:12:58.694Z,21.48
2019-05-21T06:15:25.399Z,19.07
2019-05-21T06:17:52.087Z,22.02
2019-05-21T06:20:19.946Z,19.25
2019-05-21T06:22:46.606Z,19.05
2019-05-21T06:25:15.168Z,27.98
2019-05-21T06:27:41.759Z,31.17
2019-05-21T06:30:09.867Z,23.65
2019-05-21T06:32:36.437Z,23.70
2019-05-21T06:35:04.677Z,26.57
2019-05-21T06:37:31.204Z,19.70
2019-05-21T06:39:57.746Z,22.58
2019-05-21T06:42:24.297Z,19.48
2019-05-21T06:44:51.034Z,20.37
2019-05-21T06:47:17.669Z,12.78
2019-05-21T06:49:44.555Z,16.70
2019-05-21T06:52:11.215Z,13.90
2019-05-21T06:54:37.860Z,13.25
2019-05-21T06:57:04.749Z,10.80
2019-05-21T06:59:31.499Z,13.88
2019-05-21T07:01:58.157Z,14.43
2019-05-21T07:04:24.836Z,14.50
2019-05-21T07:06:51.603Z,13.98
2019-05-21T07:09:18.361Z,10.58
2019-05-21T07:11:45.168Z,14.50
2019-05-21T07:14:12.069Z,7.92
2019-05-21T07:16:38.964Z,7.90
2019-05-21T07:19:05.779Z,8.78
2019-05-21T07:21:32.938Z,6.85
2019-05-21T07:23:59.981Z,9.55
2019-05-21T07:26:27.718Z,13.20
2019-05-21T07:28:56.394Z,8.38
2019-05-21T07:31:23.817Z,15.50
2019-05-21T07:33:50.613Z,15.43
2019-05-21T07:36:17.343Z,13.18
2019-05-21T07:38:53.436Z,8.63
2019-05-21T07:41:12.910Z,15.13
2019-05-21T07:43:39.543Z,8.78
2019-05-21T07:46:06.389Z,15.60
2019-05-21T07:48:33.268Z,15.68
2019-05-21T07:50:59.914Z,16.85
2019-05-21T07:53:26.841Z,17.57
2019-05-21T07:55:53.857Z,15.40
2019-05-21T07:58:21.100Z,14.33
2019-05-21T12:45:58.733Z,17.37
2019-05-21T12:48:25.278Z,17.07
2019-05-21T12:50:51.832Z,24.40
2019-05-21T12:53:18.386Z,28.02
2019-05-21T12:55:45.097Z,37.75
2019-05-21T12:59:35.368Z,34.95
2019-05-21T13:14:08.924Z,37.75
